Time;durP1;ratioP1;P1;durP2;ratioP2;P2;SDS_P1;SDS_P2;PMS_P1;PMS_P2;Temp;Humidity;BMP_temperature;BMP_pressure;BME280_temperature;BME280_humidity;BME280_pressure;Samples;Min_cycle;Max_cycle;Signal;HPM_P1;HPM_P2
2022/05/08 00:02:01;;;;;;;1.70;1.60;;;;;;;13.74;64.22;99177.06;4119910;28;20210;-55
2022/05/08 00:04:03;;;;;;;1.55;1.45;;;;;;;13.70;64.23;99169.59;4108023;28;20235;-55
2022/05/08 00:06:10;;;;;;;1.45;1.35;;;;;;;13.63;64.74;99167.00;4104134;28;20659;-54
2022/05/08 00:08:12;;;;;;;1.60;1.50;;;;;;;13.60;64.71;99172.19;4104327;28;20210;-54
2022/05/08 00:10:14;;;;;;;1.50;1.40;;;;;;;13.56;64.56;99163.59;4109944;28;20218;-53
2022/05/08 00:12:16;;;;;;;1.98;1.80;;;;;;;13.51;64.91;99163.53;4119258;28;20218;-54
2022/05/08 00:14:19;;;;;;;3.85;1.45;;;;;;;13.45;65.57;99170.06;4104727;28;20267;-55
2022/05/08 00:16:20;;;;;;;1.60;1.50;;;;;;;13.40;65.19;99169.97;4103269;28;20230;-55
2022/05/08 00:18:23;;;;;;;1.70;1.60;;;;;;;13.37;65.35;99162.22;4105683;28;20219;-56
2022/05/08 00:20:25;;;;;;;1.50;1.40;;;;;;;13.36;65.13;99163.31;4089739;29;20609;-54
2022/05/08 00:22:26;;;;;;;2.55;2.17;;;;;;;13.33;65.38;99163.81;4104471;28;20222;-56
2022/05/08 00:24:35;;;;;;;2.55;2.35;;;;;;;13.29;65.74;99157.16;4108494;28;20222;-55
2022/05/08 00:26:36;;;;;;;2.40;2.20;;;;;;;13.33;65.60;99161.06;4106530;28;20272;-55
2022/05/08 00:28:38;;;;;;;2.42;2.22;;;;;;;13.35;65.60;99158.06;4108952;28;20238;-55
2022/05/08 00:30:41;;;;;;;2.08;1.98;;;;;;;13.35;65.15;99156.16;4103832;28;20218;-55
2022/05/08 00:32:43;;;;;;;1.98;1.88;;;;;;;13.40;65.29;99147.97;4117200;28;20214;-55
2022/05/08 00:34:44;;;;;;;1.42;1.33;;;;;;;13.40;65.41;99152.63;4118288;28;20214;-55
2022/05/08 00:36:46;;;;;;;1.88;1.77;;;;;;;13.41;65.16;99149.66;4104334;28;20227;-55
2022/05/08 00:38:48;;;;;;;4.40;2.35;;;;;;;13.40;65.15;99147.97;4109493;28;20214;-55
2022/05/08 00:40:49;;;;;;;1.85;1.75;;;;;;;13.40;65.00;99147.97;4117511;28;20206;-55
2022/05/08 00:42:51;;;;;;;1.90;1.80;;;;;;;13.40;64.95;99147.97;4119104;28;20257;-55
2022/05/08 00:44:53;;;;;;;1.58;1.48;;;;;;;13.39;65.19;99146.31;4104435;28;20739;-56
2022/05/08 00:46:55;;;;;;;1.50;1.40;;;;;;;13.32;65.30;99140.19;4104361;28;20238;-56
2022/05/08 00:48:57;;;;;;;2.30;1.70;;;;;;;13.22;65.16;99142.75;4107445;28;20238;-56
2022/05/08 00:51:00;;;;;;;1.90;1.80;;;;;;;13.15;65.24;99146.75;4107375;28;20750;-55
2022/05/08 00:53:05;;;;;;;3.40;1.92;;;;;;;13.08;65.30;99149.69;4102561;28;20234;-56
2022/05/08 00:55:07;;;;;;;5.05;2.15;;;;;;;13.02;66.04;99138.84;4119682;28;20563;-55
2022/05/08 00:57:09;;;;;;;2.05;1.95;;;;;;;12.99;65.96;99145.69;4116867;28;20690;-54
2022/05/08 00:59:11;;;;;;;2.40;2.28;;;;;;;13.01;66.01;99146.28;4107636;28;20378;-55
2022/05/08 01:01:13;;;;;;;2.33;2.15;;;;;;;13.02;65.71;99145.19;4116689;28;20206;-55
2022/05/08 01:03:15;;;;;;;2.38;2.17;;;;;;;13.02;66.11;99134.19;4104678;28;20591;-55
2022/05/08 01:05:16;;;;;;;2.28;2.08;;;;;;;13.04;66.08;99132.03;4109493;28;20207;-54
2022/05/08 01:07:19;;;;;;;1.63;1.52;;;;;;;13.03;65.87;99135.03;4108375;28;20309;-55
2022/05/08 01:09:20;;;;;;;2.50;2.20;;;;;;;13.01;65.85;99132.53;4087280;28;20238;-54
2022/05/08 01:11:22;;;;;;;2.47;2.28;;;;;;;13.00;65.35;99130.03;4092755;28;20212;-55
2022/05/08 01:13:24;;;;;;;2.17;2.08;;;;;;;12.97;65.75;99134.09;4108153;28;20211;-55
2022/05/08 01:15:26;;;;;;;2.38;1.60;;;;;;;12.90;65.39;99130.66;4102485;28;20242;-56
2022/05/08 01:17:28;;;;;;;4.63;1.67;;;;;;;12.85;65.56;99127.81;4104660;28;20262;-55
2022/05/08 01:19:29;;;;;;;1.95;1.75;;;;;;;12.81;65.49;99132.16;4103919;28;20276;-55
2022/05/08 01:21:35;;;;;;;1.75;1.65;;;;;;;12.82;65.23;99128.34;4118300;28;20298;-55
2022/05/08 01:23:37;;;;;;;2.42;2.22;;;;;;;12.80;65.73;99125.00;4117411;28;20278;-55
2022/05/08 01:25:53;;;;;;;2.85;2.63;;;;;;;12.75;65.93;99126.81;4107400;28;20372;-55
2022/05/08 01:27:55;;;;;;;1.80;1.70;;;;;;;12.68;65.74;99120.66;4104625;28;20811;-55
2022/05/08 01:29:56;;;;;;;2.28;2.10;;;;;;;12.60;65.92;99121.06;4110551;28;20210;-55
2022/05/08 01:31:59;;;;;;;2.67;2.47;;;;;;;12.51;66.15;99125.31;4106670;28;20277;-55
2022/05/08 01:34:00;;;;;;;2.80;1.98;;;;;;;12.46;65.98;99128.81;4109883;28;20222;-55
2022/05/08 01:36:02;;;;;;;2.20;2.00;;;;;;;12.47;66.48;99126.88;4107985;28;20246;-55
2022/05/08 01:38:05;;;;;;;2.45;2.22;;;;;;;12.41;66.83;99125.13;4102140;28;20925;-56
2022/05/08 01:40:07;;;;;;;1.95;1.80;;;;;;;12.38;66.54;99120.13;4118713;28;20280;-56
2022/05/08 01:42:09;;;;;;;2.00;1.70;;;;;;;12.36;66.78;99123.13;4105298;28;20216;-56
2022/05/08 01:44:11;;;;;;;1.67;1.50;;;;;;;12.33;66.67;99123.63;4109558;28;20627;-55
2022/05/08 01:46:12;;;;;;;2.50;2.28;;;;;;;12.36;66.84;99128.63;4118929;28;20730;-57
2022/05/08 01:48:23;;;;;;;3.17;1.60;;;;;;;12.40;66.37;99129.81;4120769;28;20599;-58
2022/05/08 01:50:25;;;;;;;1.90;1.77;;;;;;;12.42;66.76;99124.88;4116798;28;20325;-55
2022/05/08 01:52:27;;;;;;;2.70;2.33;;;;;;;12.34;66.65;99130.78;4119223;28;20577;-56
2022/05/08 01:54:28;;;;;;;2.55;2.35;;;;;;;12.28;67.16;99119.94;4106983;28;20593;-58
2022/05/08 01:56:30;;;;;;;2.28;2.15;;;;;;;12.24;66.82;99129.75;4106899;28;20233;-57
2022/05/08 01:58:32;;;;;;;2.30;2.10;;;;;;;12.17;67.24;99121.66;4107039;28;20230;-57
2022/05/08 02:00:34;;;;;;;2.15;1.90;;;;;;;12.21;67.25;99124.75;4101991;28;20554;-57
2022/05/08 02:02:36;;;;;;;3.80;3.22;;;;;;;12.18;67.83;99126.06;4103293;28;20206;-57
2022/05/08 02:04:37;;;;;;;30.02;2.97;;;;;;;12.16;67.75;99127.41;4105395;28;20441;-56
2022/05/08 02:06:39;;;;;;;2.60;1.77;;;;;;;12.18;67.64;99128.00;4103100;28;20230;-57
2022/05/08 02:08:41;;;;;;;2.42;2.22;;;;;;;12.16;67.55;99130.97;4107453;28;20242;-56
2022/05/08 02:10:43;;;;;;;2.63;2.10;;;;;;;12.18;67.44;99134.28;4105293;28;20673;-57
2022/05/08 02:12:45;;;;;;;2.30;2.10;;;;;;;12.16;67.39;99130.97;4101014;28;20265;-57
2022/05/08 02:14:47;;;;;;;2.55;2.35;;;;;;;12.12;67.55;99137.19;4103442;28;20211;-56
2022/05/08 02:16:48;;;;;;;3.08;2.78;;;;;;;12.06;68.04;99133.53;4110359;28;20230;-56
2022/05/08 02:18:51;;;;;;;2.53;2.30;;;;;;;12.06;67.81;99132.69;4106834;28;20677;-56
2022/05/08 02:20:52;;;;;;;2.35;2.15;;;;;;;12.04;67.90;99127.44;4103231;28;20211;-56
2022/05/08 02:22:54;;;;;;;2.78;2.58;;;;;;;12.07;67.81;99134.34;4090327;28;20207;-56
2022/05/08 02:24:56;;;;;;;3.15;2.95;;;;;;;12.04;67.75;99127.44;4115878;28;20228;-57
2022/05/08 02:26:58;;;;;;;2.45;2.25;;;;;;;12.02;67.62;99137.84;4117042;28;20257;-57
2022/05/08 02:28:59;;;;;;;2.67;2.47;;;;;;;11.97;67.54;99134.16;4106829;28;20720;-56
2022/05/08 02:31:01;;;;;;;2.63;2.42;;;;;;;11.93;67.66;99138.47;4105543;28;20219;-55
2022/05/08 02:33:03;;;;;;;2.70;2.50;;;;;;;11.78;68.81;99140.91;4104346;28;20416;-54
2022/05/08 02:35:06;;;;;;;2.65;2.45;;;;;;;11.75;69.11;99139.47;4117919;28;20316;-58
2022/05/08 02:37:08;;;;;;;3.22;2.90;;;;;;;11.80;68.83;99139.59;4102545;28;20223;-58
2022/05/08 02:39:10;;;;;;;2.33;2.10;;;;;;;11.82;68.58;99126.44;4103006;28;20218;-58
2022/05/08 02:41:11;;;;;;;2.28;2.10;;;;;;;11.81;68.60;99132.16;4101340;28;20213;-57
2022/05/08 02:43:14;;;;;;;2.67;2.58;;;;;;;11.76;68.77;99132.91;4101196;28;20241;-56
2022/05/08 02:45:16;;;;;;;5.15;2.83;;;;;;;11.77;68.44;99140.06;4102223;28;20218;-57
2022/05/08 02:47:18;;;;;;;1.95;1.85;;;;;;;11.80;68.61;99134.09;4101624;28;20782;-57
2022/05/08 02:49:20;;;;;;;3.17;2.78;;;;;;;11.85;68.16;99123.22;4102712;28;20289;-57
2022/05/08 02:51:21;;;;;;;3.88;2.72;;;;;;;11.84;67.86;99124.28;4106469;28;21766;-57
2022/05/08 02:53:23;;;;;;;2.50;2.17;;;;;;;11.80;68.50;99136.00;4115749;28;20668;-57
2022/05/08 03:00:17;;;;;;;2.67;2.10;;;;;;;11.64;68.02;99128.53;4102192;28;20213;-57
2022/05/08 03:02:18;;;;;;;2.40;2.10;;;;;;;11.66;68.05;99123.63;4116280;28;21132;-57
2022/05/08 03:04:20;;;;;;;1.95;1.85;;;;;;;11.65;67.99;99128.28;4116806;28;20249;-57
2022/05/08 03:06:22;;;;;;;2.53;2.33;;;;;;;11.58;68.22;99124.03;4106459;28;20293;-56
2022/05/08 03:08:24;;;;;;;2.70;2.50;;;;;;;11.55;68.14;99135.41;4104430;28;20199;-57
2022/05/08 03:10:25;;;;;;;2.22;2.08;;;;;;;11.54;68.25;99134.59;4101260;28;20210;-57
2022/05/08 03:12:27;;;;;;;2.28;2.17;;;;;;;11.59;68.66;99137.50;4115525;28;20237;-55
2022/05/08 03:14:29;;;;;;;3.13;2.85;;;;;;;11.56;68.73;99137.09;4101170;28;20230;-56
2022/05/08 03:16:31;;;;;;;3.13;2.85;;;;;;;11.53;68.93;99141.16;4106288;28;20226;-57
2022/05/08 03:18:34;;;;;;;2.55;2.38;;;;;;;11.54;68.84;99145.56;4101170;28;20238;-57
2022/05/08 03:20:36;;;;;;;2.70;2.50;;;;;;;11.54;68.66;99142.81;4108582;28;20213;-57
2022/05/08 03:22:38;;;;;;;3.28;2.60;;;;;;;11.55;68.67;99147.22;4102552;28;20214;-57
2022/05/08 03:24:39;;;;;;;3.47;3.17;;;;;;;11.56;68.68;99143.41;4104705;28;20743;-57
2022/05/08 03:26:41;;;;;;;2.95;2.75;;;;;;;11.56;68.55;99145.34;4117081;28;20234;-58
2022/05/08 03:28:43;;;;;;;4.47;1.83;;;;;;;11.55;68.46;99141.75;4104220;28;20215;-56
2022/05/08 03:30:45;;;;;;;2.15;2.05;;;;;;;11.57;68.43;99144.25;4120564;28;20261;-55
2022/05/08 03:32:47;;;;;;;3.17;2.60;;;;;;;11.56;68.57;99142.59;4109737;28;20210;-57
2022/05/08 03:34:52;;;;;;;3.28;2.97;;;;;;;11.55;68.45;99149.13;4102292;28;20207;-58
2022/05/08 03:36:53;;;;;;;2.80;2.60;;;;;;;11.57;68.27;99155.22;4101302;28;20716;-57
2022/05/08 03:38:55;;;;;;;3.97;3.05;;;;;;;11.55;68.18;99147.22;4097673;28;20239;-58
2022/05/08 03:40:57;;;;;;;3.13;2.92;;;;;;;11.53;67.94;99152.13;4106028;28;20262;-57
2022/05/08 03:42:59;;;;;;;2.67;2.47;;;;;;;11.51;68.09;99153.44;4105229;28;20206;-56
2022/05/08 03:45:01;;;;;;;2.67;2.47;;;;;;;11.49;68.05;99153.66;4121350;28;20611;-57
2022/05/08 03:47:03;;;;;;;2.83;2.63;;;;;;;11.42;67.99;99152.13;4109149;28;20241;-57
2022/05/08 03:49:05;;;;;;;3.03;2.83;;;;;;;11.37;67.67;99154.78;4110092;28;20230;-57
2022/05/08 03:51:08;;;;;;;2.45;2.25;;;;;;;11.37;67.98;99161.06;4109834;28;20246;-57
2022/05/08 03:53:10;;;;;;;1.92;1.83;;;;;;;11.34;67.83;99156.06;4104610;28;20204;-58
2022/05/08 03:55:12;;;;;;;2.58;2.38;;;;;;;11.33;67.76;99148.94;4103161;28;20211;-58
2022/05/08 03:57:14;;;;;;;2.58;2.45;;;;;;;11.22;67.90;99144.28;4109288;28;20230;-57
2022/05/08 03:59:15;;;;;;;2.80;2.60;;;;;;;11.18;68.25;99151.28;4104166;28;20238;-57
2022/05/08 04:01:17;;;;;;;2.75;2.55;;;;;;;11.15;68.14;99146.31;4107011;28;20732;-57
2022/05/08 04:03:19;;;;;;;2.28;2.08;;;;;;;11.09;68.57;99150.00;4104149;28;20215;-57
2022/05/08 04:05:21;;;;;;;2.42;2.22;;;;;;;11.04;68.89;99144.38;4118396;28;20209;-57
2022/05/08 04:07:22;;;;;;;2.28;2.10;;;;;;;10.99;68.89;99149.78;4102641;28;20231;-57
2022/05/08 04:09:24;;;;;;;4.18;3.85;;;;;;;11.00;68.90;99148.69;4103746;28;20222;-58
2022/05/08 04:11:29;;;;;;;2.40;2.22;;;;;;;10.94;68.93;99149.63;4107044;28;20235;-56
2022/05/08 04:13:31;;;;;;;2.80;2.60;;;;;;;10.92;69.14;99157.22;4107374;28;20214;-58
2022/05/08 04:17:53;;;;;;;2.95;2.75;;;;;;;10.91;69.13;99152.03;4105980;28;20607;-57
2022/05/08 04:19:55;;;;;;;2.17;1.98;;;;;;;10.96;69.33;99158.44;4111651;28;20234;-58
2022/05/08 04:24:17;;;;;;;3.03;2.83;;;;;;;10.97;69.40;99160.09;4105474;28;20234;-57
2022/05/08 04:26:19;;;;;;;2.50;2.30;;;;;;;10.99;69.06;99163.47;4108021;28;20266;-58
2022/05/08 04:28:21;;;;;;;2.58;2.47;;;;;;;11.00;69.07;99159.66;4103002;28;20243;-58
2022/05/08 04:30:23;;;;;;;2.83;2.63;;;;;;;11.00;69.18;99159.66;4104901;28;20285;-58
2022/05/08 04:32:24;;;;;;;2.05;1.95;;;;;;;11.00;69.34;99159.66;4105748;28;20231;-59
2022/05/08 04:34:26;;;;;;;3.33;2.92;;;;;;;11.03;69.18;99164.63;4108057;28;20661;-57
2022/05/08 04:36:29;;;;;;;3.15;2.85;;;;;;;11.03;69.25;99164.63;4106392;28;20231;-59
2022/05/08 04:38:30;;;;;;;2.92;2.72;;;;;;;11.02;69.20;99168.44;4110263;28;20206;-57
2022/05/08 04:40:32;;;;;;;3.33;2.60;;;;;;;11.01;69.12;99166.78;4106689;28;20219;-58
2022/05/08 04:42:34;;;;;;;3.92;2.97;;;;;;;11.03;69.20;99169.31;4105214;28;20269;-56
2022/05/08 04:44:35;;;;;;;3.67;3.38;;;;;;;11.06;69.26;99172.41;4106989;28;20550;-59
2022/05/08 04:46:37;;;;;;;2.78;2.50;;;;;;;11.08;69.34;99173.00;4110243;28;20233;-58
2022/05/08 04:48:41;;;;;;;6.07;3.20;;;;;;;11.07;69.78;99171.31;4106120;28;20250;-57
2022/05/08 04:50:43;;;;;;;3.47;3.17;;;;;;;11.11;69.89;99172.50;4120385;28;20224;-57
2022/05/08 04:52:45;;;;;;;2.97;2.78;;;;;;;11.12;69.91;99176.91;4105187;28;20242;-57
2022/05/08 04:54:46;;;;;;;3.60;3.30;;;;;;;11.13;69.79;99175.84;4110177;28;20743;-56
2022/05/08 04:56:49;;;;;;;2.75;2.55;;;;;;;10.98;71.57;99177.38;4102669;28;20227;-57
2022/05/08 04:58:50;;;;;;;3.50;3.22;;;;;;;11.08;70.81;99183.94;4109641;28;20644;-58
2022/05/08 05:00:52;;;;;;;3.13;2.85;;;;;;;11.06;71.37;99187.97;4107482;28;22928;-56
2022/05/08 05:02:53;;;;;;;4.13;3.00;;;;;;;11.00;71.75;99181.56;4106750;28;20591;-57
2022/05/08 05:04:57;;;;;;;15.45;3.13;;;;;;;11.03;71.80;99186.53;4106208;28;20226;-60
2022/05/08 05:06:59;;;;;;;2.75;2.47;;;;;;;11.12;71.26;99189.78;4103214;28;20218;-58
2022/05/08 05:09:01;;;;;;;3.35;3.15;;;;;;;11.23;71.05;99187.03;4110625;28;20211;-60
2022/05/08 05:11:08;;;;;;;2.90;2.70;;;;;;;11.30;70.16;99193.22;4109085;28;20210;-58
2022/05/08 05:13:10;;;;;;;2.80;2.60;;;;;;;11.38;70.48;99194.78;4105131;28;20222;-59
2022/05/08 05:15:12;;;;;;;3.75;3.45;;;;;;;11.48;70.19;99195.84;4118192;28;20238;-59
2022/05/08 05:17:14;;;;;;;2.20;1.92;;;;;;;11.53;70.25;99197.88;4103618;28;20231;-57
2022/05/08 05:19:15;;;;;;;4.25;3.95;;;;;;;11.58;70.00;99196.09;4105105;28;20255;-57
2022/05/08 05:21:17;;;;;;;2.70;2.50;;;;;;;11.66;69.95;99203.13;4104902;28;20215;-61
2022/05/08 05:23:19;;;;;;;2.90;2.70;;;;;;;11.72;69.92;99203.00;4119716;28;20589;-57
2022/05/08 05:25:20;;;;;;;4.07;2.78;;;;;;;11.78;69.98;99204.78;4105388;28;20219;-58
2022/05/08 05:27:22;;;;;;;2.90;2.70;;;;;;;11.87;70.04;99208.84;4110094;28;20258;-56
2022/05/08 05:29:24;;;;;;;3.60;3.08;;;;;;;11.86;71.40;99204.44;4105684;28;20242;-55
2022/05/08 05:31:26;;;;;;;3.00;2.78;;;;;;;11.93;71.61;99210.63;4106448;28;20291;-57
2022/05/08 05:33:28;;;;;;;2.97;2.78;;;;;;;12.01;71.92;99212.97;4118411;28;20211;-56
2022/05/08 05:35:29;;;;;;;3.75;3.40;;;;;;;12.04;71.45;99208.91;4118518;28;20214;-58
2022/05/08 05:37:31;;;;;;;4.10;3.80;;;;;;;12.25;72.10;99217.31;4106077;28;20221;-56
2022/05/08 05:39:34;;;;;;;3.50;3.20;;;;;;;12.38;71.55;99208.78;4105779;28;20207;-57
2022/05/08 05:41:35;;;;;;;3.90;3.50;;;;;;;12.49;71.37;99213.41;4102759;28;20238;-58
2022/05/08 05:43:37;;;;;;;3.95;3.65;;;;;;;12.60;70.59;99212.53;4108167;28;20218;-59
2022/05/08 05:45:39;;;;;;;9.68;5.88;;;;;;;12.77;71.19;99216.13;4104262;28;20211;-59
2022/05/08 05:47:52;;;;;;;3.83;3.53;;;;;;;13.04;70.67;99203.47;4108018;28;20684;-58
2022/05/08 05:49:54;;;;;;;3.83;3.53;;;;;;;13.10;69.94;99218.94;4106890;28;20210;-58
2022/05/08 05:51:57;;;;;;;4.60;4.30;;;;;;;13.16;69.22;99206.97;4101213;28;20211;-57
2022/05/08 05:53:58;;;;;;;3.65;3.35;;;;;;;13.26;69.47;99209.91;4102819;28;20204;-57
2022/05/08 05:56:01;;;;;;;4.65;4.25;;;;;;;13.41;69.58;99210.13;4102213;28;20812;-57
2022/05/08 05:58:02;;;;;;;3.75;3.45;;;;;;;13.59;69.18;99220.03;4108077;28;20240;-58
2022/05/08 06:00:12;;;;;;;3.88;3.58;;;;;;;13.71;68.23;99216.06;4106986;28;20697;-56
2022/05/08 06:02:13;;;;;;;4.07;3.78;;;;;;;13.83;68.76;99222.31;4108522;28;20214;-57
2022/05/08 06:04:15;;;;;;;4.05;3.75;;;;;;;13.95;67.84;99217.53;4109440;28;21039;-58
2022/05/08 06:06:17;;;;;;;4.43;4.05;;;;;;;13.98;68.46;99222.50;4103320;28;20230;-55
2022/05/08 06:08:19;;;;;;;3.00;2.67;;;;;;;14.21;67.31;99230.56;4103523;28;20226;-57
2022/05/08 06:10:20;;;;;;;2.83;2.63;;;;;;;14.36;67.50;99229.94;4104367;28;20214;-57
2022/05/08 06:12:22;;;;;;;4.18;3.70;;;;;;;14.19;67.76;99232.75;4103353;28;20223;-58
2022/05/08 06:14:24;;;;;;;3.33;3.03;;;;;;;14.34;67.59;99232.09;4102483;28;20914;-56
2022/05/08 06:16:25;;;;;;;2.72;2.53;;;;;;;14.52;66.55;99240.03;4109775;28;20668;-57
2022/05/08 06:18:27;;;;;;;3.90;3.53;;;;;;;14.70;66.72;99236.94;4111013;28;20226;-56
2022/05/08 06:20:29;;;;;;;3.63;3.33;;;;;;;14.88;65.92;99237.41;4103813;28;20214;-55
2022/05/08 06:22:32;;;;;;;3.15;2.85;;;;;;;15.01;65.37;99239.75;4108746;28;20218;-57
2022/05/08 06:24:35;;;;;;;3.30;3.00;;;;;;;15.17;65.09;99238.78;4102335;28;20716;-59
2022/05/08 06:26:36;;;;;;;2.60;2.25;;;;;;;15.28;64.93;99248.81;4102421;28;20301;-55
2022/05/08 06:28:40;;;;;;;3.10;2.80;;;;;;;15.36;65.04;99247.56;4104392;28;21829;-56
2022/05/08 06:30:42;;;;;;;4.43;3.45;;;;;;;15.43;65.12;99248.97;4103888;28;20211;-56
2022/05/08 06:32:44;;;;;;;3.47;3.17;;;;;;;15.53;64.34;99253.75;4098244;28;20256;-56
2022/05/08 06:35:06;;;;;;;4.88;3.50;;;;;;;15.57;64.66;99246.63;4100755;28;20292;-57
2022/05/08 06:37:11;;;;;;;3.53;2.90;;;;;;;15.63;64.62;99254.66;4099593;28;20294;-58
2022/05/08 06:39:13;;;;;;;3.03;2.83;;;;;;;15.77;64.53;99255.06;4115051;28;20853;-56
2022/05/08 06:41:15;;;;;;;4.38;3.45;;;;;;;15.86;65.12;99254.28;4113871;28;20206;-57
2022/05/08 06:43:17;;;;;;;3.28;3.08;;;;;;;16.04;64.13;99251.06;4100680;28;20214;-57
2022/05/08 06:45:24;;;;;;;3.05;2.83;;;;;;;16.15;64.12;99252.81;4102046;28;20249;-57
2022/05/08 06:47:26;;;;;;;2.60;2.40;;;;;;;16.17;63.47;99258.88;4100002;28;22472;-58
2022/05/08 06:49:28;;;;;;;3.72;3.42;;;;;;;16.30;63.69;99252.88;4112333;28;20206;-58
2022/05/08 06:51:30;;;;;;;3.30;3.00;;;;;;;16.44;63.75;99251.31;4115674;28;20490;-58
2022/05/08 06:53:32;;;;;;;2.65;2.45;;;;;;;16.44;63.45;99254.06;4103437;28;21048;-57
2022/05/08 06:55:34;;;;;;;2.78;2.38;;;;;;;16.45;64.04;99264.06;4113088;28;20211;-58
2022/05/08 06:57:36;;;;;;;2.95;2.65;;;;;;;16.71;62.87;99260.28;4101669;28;20230;-55
2022/05/08 07:01:59;;;;;;;2.20;2.00;;;;;;;16.91;62.44;99257.59;4104347;28;20266;-56
2022/05/08 07:04:05;;;;;;;3.30;2.63;;;;;;;16.92;62.36;99263.94;4108417;28;20218;-55
2022/05/08 07:06:07;;;;;;;2.33;2.13;;;;;;;16.84;62.59;99256.97;4100623;28;20238;-53
2022/05/08 07:08:09;;;;;;;5.35;3.58;;;;;;;17.03;61.71;99260.91;4103901;28;20230;-56
2022/05/08 07:10:11;;;;;;;3.30;3.00;;;;;;;17.02;61.76;99262.00;4103309;28;20222;-56
2022/05/08 07:12:13;;;;;;;3.22;2.92;;;;;;;16.87;61.35;99256.44;4102171;28;20215;-55
2022/05/08 07:14:15;;;;;;;2.13;1.98;;;;;;;16.96;61.67;99260.34;4108833;28;20728;-55
2022/05/08 07:16:17;;;;;;;3.17;2.88;;;;;;;17.24;61.18;99262.59;4104201;28;20215;-57
2022/05/08 07:18:21;;;;;;;2.40;2.17;;;;;;;17.25;60.10;99264.28;4102756;28;20218;-55
2022/05/08 07:20:23;;;;;;;2.10;1.90;;;;;;;17.49;60.90;99257.97;4116972;28;20226;-55
2022/05/08 07:22:25;;;;;;;3.42;3.05;;;;;;;17.63;60.33;99255.44;4117560;28;20202;-55
2022/05/08 07:24:27;;;;;;;2.75;2.55;;;;;;;17.72;59.99;99260.16;4106296;28;20580;-54
2022/05/08 07:26:28;;;;;;;2.78;2.22;;;;;;;17.96;59.69;99261.25;4106164;28;20222;-54
2022/05/08 07:28:30;;;;;;;13.00;3.83;;;;;;;18.27;58.74;99264.78;4122128;28;20237;-55
2022/05/08 07:30:32;;;;;;;2.45;2.08;;;;;;;18.43;59.09;99266.41;4121423;28;20245;-54
2022/05/08 07:32:34;;;;;;;2.80;2.28;;;;;;;18.50;58.82;99266.94;4108386;28;20206;-54
2022/05/08 07:36:57;;;;;;;2.42;2.15;;;;;;;18.87;57.38;99261.78;4105076;28;20241;-57
2022/05/08 07:38:58;;;;;;;2.53;2.33;;;;;;;18.26;58.89;99260.34;4106302;28;20203;-55
2022/05/08 07:41:01;;;;;;;2.30;2.10;;;;;;;17.85;58.10;99259.59;4103562;28;20209;-56
2022/05/08 07:43:03;;;;;;;2.88;2.08;;;;;;;18.14;58.94;99257.06;4106259;28;20560;-55
2022/05/08 07:45:06;;;;;;;2.75;2.35;;;;;;;18.49;58.30;99259.75;4103126;28;20603;-56
2022/05/08 07:47:07;;;;;;;2.30;2.10;;;;;;;18.78;57.80;99263.50;4107589;28;20227;-56
2022/05/08 07:49:10;;;;;;;2.50;2.20;;;;;;;18.49;58.67;99266.13;4115755;28;20222;-57
2022/05/08 07:51:12;;;;;;;5.13;2.55;;;;;;;18.67;58.25;99264.66;4117922;28;20301;-56
2022/05/08 07:53:15;;;;;;;2.33;2.13;;;;;;;18.37;58.55;99264.75;4102023;28;20211;-56
2022/05/08 07:55:16;;;;;;;2.70;2.38;;;;;;;18.47;58.10;99264.75;4107524;28;20207;-57
2022/05/08 07:57:18;;;;;;;2.53;2.33;;;;;;;18.79;57.68;99270.72;4117002;28;20555;-56
2022/05/08 07:59:20;;;;;;;2.33;2.13;;;;;;;19.19;57.43;99270.50;4102728;28;20203;-57
2022/05/08 08:01:22;;;;;;;3.45;3.15;;;;;;;19.30;57.59;99272.09;4101686;28;20752;-57
2022/05/08 08:03:44;;;;;;;2.28;2.08;;;;;;;19.54;56.78;99270.25;4102917;28;20341;-56
2022/05/08 08:05:45;;;;;;;2.15;1.98;;;;;;;19.52;56.43;99280.84;4117984;28;20206;-54
2022/05/08 08:08:07;;;;;;;2.60;2.38;;;;;;;19.31;56.62;99273.78;4115206;28;20226;-57
2022/05/08 08:10:09;;;;;;;3.25;2.10;;;;;;;19.51;56.62;99276.41;4108371;28;20207;-57
2022/05/08 08:12:11;;;;;;;2.83;2.10;;;;;;;19.97;56.09;99280.47;4102447;28;20717;-57
2022/05/08 08:14:14;;;;;;;1.50;1.40;;;;;;;20.26;55.33;99272.97;4104514;28;20271;-57
2022/05/08 08:16:36;;;;;;;2.55;2.15;;;;;;;20.49;54.82;99275.75;4105611;28;20247;-54
2022/05/08 08:18:41;;;;;;;3.10;2.13;;;;;;;20.68;54.58;99279.44;4120291;28;20312;-55
2022/05/08 08:20:43;;;;;;;2.05;1.55;;;;;;;20.75;54.53;99267.94;4105467;28;20206;-56
2022/05/08 08:22:45;;;;;;;2.30;2.10;;;;;;;20.81;54.27;99277.88;4122075;28;20210;-54
2022/05/08 08:24:47;;;;;;;1.85;1.70;;;;;;;21.00;53.56;99281.56;4108776;28;20215;-58
2022/05/08 08:26:49;;;;;;;2.20;2.00;;;;;;;21.13;53.59;99286.38;4106416;28;20655;-54
2022/05/08 08:28:51;;;;;;;2.22;2.08;;;;;;;20.73;53.59;99287.72;4109188;28;20304;-55
2022/05/08 08:30:53;;;;;;;1.85;1.58;;;;;;;20.96;53.86;99286.88;4102133;28;20282;-55
2022/05/08 08:32:54;;;;;;;2.28;1.70;;;;;;;21.20;53.20;99284.06;4107137;28;20209;-55
2022/05/08 08:34:57;;;;;;;2.00;1.70;;;;;;;21.32;52.91;99284.44;4108456;28;20213;-55
2022/05/08 08:36:59;;;;;;;1.70;1.60;;;;;;;21.22;53.37;99284.56;4103591;28;20249;-57
2022/05/08 08:39:01;;;;;;;1.73;1.63;;;;;;;21.20;53.23;99281.28;4107455;28;20339;-58
2022/05/08 08:41:04;;;;;;;1.67;1.20;;;;;;;21.03;53.29;99278.16;4105023;28;20210;-56
2022/05/08 08:43:09;;;;;;;2.08;1.88;;;;;;;21.27;53.37;99287.28;4103758;28;20203;-60
2022/05/08 08:47:43;;;;;;;2.22;1.48;;;;;;;21.92;52.17;99294.66;4104879;28;20226;-56
2022/05/08 08:49:52;;;;;;;1.73;1.58;;;;;;;21.95;52.21;99282.88;4103920;28;20218;-57
2022/05/08 08:51:54;;;;;;;1.60;1.50;;;;;;;22.19;52.00;99289.16;4105511;28;20222;-55
2022/05/08 08:53:56;;;;;;;2.10;1.90;;;;;;;22.09;51.49;99280.94;4103523;28;20245;-58
2022/05/08 08:56:00;;;;;;;1.67;1.20;;;;;;;22.14;51.83;99280.88;4095769;28;20265;-55
2022/05/08 08:58:02;;;;;;;1.73;1.63;;;;;;;22.19;51.91;99283.56;4111161;28;20206;-56
2022/05/08 09:00:05;;;;;;;2.97;1.60;;;;;;;22.30;50.61;99273.91;4105780;28;20558;-54
2022/05/08 09:02:17;;;;;;;1.75;1.63;;;;;;;22.51;51.31;99280.78;4104774;28;20210;-55
2022/05/08 09:04:19;;;;;;;1.85;1.58;;;;;;;22.61;50.71;99286.97;4101804;28;20206;-57
2022/05/08 09:06:21;;;;;;;1.42;1.05;;;;;;;22.54;50.35;99286.56;4109672;28;20695;-54
2022/05/08 09:08:28;;;;;;;1.38;1.23;;;;;;;22.71;50.40;99285.94;4113751;28;20264;-57
2022/05/08 09:10:35;;;;;;;1.75;1.02;;;;;;;22.80;50.07;99284.06;4110862;28;20214;-58
2022/05/08 09:12:38;;;;;;;1.75;1.00;;;;;;;22.95;50.26;99280.94;4095595;28;20202;-55
2022/05/08 09:14:40;;;;;;;1.27;1.10;;;;;;;22.77;50.36;99276.34;4105424;28;20206;-57
2022/05/08 09:17:05;;;;;;;1.70;1.42;;;;;;;23.14;49.81;99290.03;4106989;28;20257;-56
2022/05/08 09:19:07;;;;;;;1.50;1.35;;;;;;;23.11;49.37;99282.28;4103998;28;20222;-55
2022/05/08 09:23:41;;;;;;;1.77;1.30;;;;;;;23.57;48.43;99291.31;4103814;28;20246;-59
2022/05/08 09:26:03;;;;;;;1.45;0.88;;;;;;;23.56;48.05;99286.88;4094981;28;20226;-59
2022/05/08 09:28:08;;;;;;;1.65;1.10;;;;;;;23.71;48.27;99286.50;4109638;28;20237;-55
2022/05/08 09:30:10;;;;;;;2.35;1.42;;;;;;;23.59;48.72;99292.66;4104655;28;20782;-56
2022/05/08 09:32:39;;;;;;;1.40;1.13;;;;;;;23.25;47.32;99286.72;4118867;28;20253;-56
2022/05/08 09:34:56;;;;;;;1.10;1.00;;;;;;;23.03;48.93;99285.81;4102031;28;20222;-59
2022/05/08 09:37:08;;;;;;;1.73;1.63;;;;;;;21.77;48.66;99280.97;4118556;28;20272;-53
2022/05/08 09:39:10;;;;;;;1.30;1.20;;;;;;;21.29;50.56;99276.66;4101725;28;20202;-52
2022/05/08 09:41:14;;;;;;;1.55;1.45;;;;;;;21.05;51.46;99281.50;4100963;28;20280;-53
2022/05/08 09:43:28;;;;;;;2.03;1.20;;;;;;;21.09;51.24;99272.22;4106622;28;20315;-52
2022/05/08 09:45:30;;;;;;;1.40;1.20;;;;;;;21.30;52.47;99273.59;4117155;28;20888;-51
2022/05/08 09:47:42;;;;;;;8.50;1.33;;;;;;;21.88;52.42;99271.28;4103571;28;20230;-52
2022/05/08 09:49:45;;;;;;;1.95;1.77;;;;;;;22.49;51.41;99266.28;4107853;28;20276;-52
2022/05/08 09:51:47;;;;;;;1.85;1.00;;;;;;;22.77;50.65;99270.75;4109505;28;20214;-51
2022/05/08 09:53:50;;;;;;;1.33;1.23;;;;;;;23.18;49.79;99274.34;4118926;28;20217;-52
2022/05/08 09:55:57;;;;;;;0.80;0.80;;;;;;;23.25;49.45;99266.38;4103076;28;20211;-51
2022/05/08 09:58:00;;;;;;;1.73;1.40;;;;;;;23.73;48.70;99271.88;4104000;28;20233;-54
2022/05/08 10:00:09;;;;;;;1.08;0.90;;;;;;;23.30;48.92;99271.84;4103343;28;20230;-52